Time;durP1;ratioP1;P1;durP2;ratioP2;P2;SDS_P1;SDS_P2;PMS_P1;PMS_P2;Temp;Humidity;BMP_temperature;BMP_pressure;BME280_temperature;BME280_humidity;BME280_pressure;Samples;Min_cycle;Max_cycle;Signal;HPM_P1;HPM_P2
2021/12/13 00:02:48;;;;;;;16.77;9.15;;;;;;;;;;5023743;28;20036;-85
2021/12/13 00:05:49;;;;;;;17.77;9.25;;;;;;;;;;5012237;28;20037;-82
2021/12/13 00:08:31;;;;;;;17.55;9.10;;;;;;;;;;5040205;28;20033;-85
2021/12/13 00:11:27;;;;;;;21.20;10.18;;;;;;;;;;5040334;28;20030;-85
2021/12/13 00:14:33;;;;;;;21.95;10.45;;;;;;;;;;5022490;28;20029;-87
2021/12/13 00:20:37;;;;;;;18.40;10.30;;;;;;;;;;5038366;28;20036;-85
2021/12/13 00:23:40;;;;;;;19.77;10.52;;;;;;;;;;5040146;28;20485;-85
2021/12/13 00:26:27;;;;;;;20.02;10.77;;;;;;;;;;5023022;28;20033;-84
2021/12/13 00:28:53;;;;;;;20.10;10.73;;;;;;;;;;5042848;28;20021;-85
2021/12/13 00:31:41;;;;;;;21.77;10.57;;;;;;;;;;5040226;28;20029;-84
2021/12/13 00:34:38;;;;;;;21.90;11.27;;;;;;;;;;5026196;28;20030;-86
2021/12/13 00:37:50;;;;;;;;;;;;;;;;;;;;;
2021/12/13 00:40:39;;;;;;;28.40;11.13;;;;;;;;;;5041616;28;20085;-86
2021/12/13 00:43:33;;;;;;;21.83;11.15;;;;;;;;;;5039375;28;20075;-84
2021/12/13 00:46:16;;;;;;;19.20;10.70;;;;;;;;;;5020355;28;20565;-85
2021/12/13 00:48:52;;;;;;;20.88;10.98;;;;;;;;;;5021647;28;20271;-83
2021/12/13 00:52:23;;;;;;;;;;;;;;;;;;;;;
2021/12/13 00:58:20;;;;;;;23.38;10.77;;;;;;;;;;5039831;28;20096;-85
2021/12/13 01:01:13;;;;;;;19.33;10.25;;;;;;;;;;5032802;28;20033;-85
2021/12/13 01:07:17;;;;;;;19.70;10.85;;;;;;;;;;5041371;28;20025;-85
2021/12/13 01:10:17;;;;;;;22.60;11.10;;;;;;;;;;5023634;28;20422;-84
2021/12/13 01:13:13;;;;;;;21.98;10.98;;;;;;;;;;5041394;28;20033;-85
2021/12/13 01:16:08;;;;;;;;;;;;;;;;;;;;;
2021/12/13 01:22:49;;;;;;;18.85;9.40;;;;;;;;;;5023835;28;20063;-85
2021/12/13 01:26:14;;;;;;;21.48;10.68;;;;;;;;;;5039872;28;20120;-85
2021/12/13 01:32:24;;;;;;;;;;;;;;;;;;;;;
2021/12/13 01:35:24;;;;;;;;;;;;;;;;;;;;;
2021/12/13 01:38:34;;;;;;;19.83;10.20;;;;;;;;;;5039252;28;20585;-85
2021/12/13 01:44:43;;;;;;;20.30;10.27;;;;;;;;;;5001569;28;20033;-86
2021/12/13 01:47:13;;;;;;;18.42;10.32;;;;;;;;;;5041991;28;20430;-85
2021/12/13 01:50:00;;;;;;;19.33;10.68;;;;;;;;;;5021436;28;20132;-86
2021/12/13 01:52:32;;;;;;;20.20;10.32;;;;;;;;;;5038781;28;20033;-84
2021/12/13 01:55:08;;;;;;;21.63;10.93;;;;;;;;;;5021616;28;20029;-85
2021/12/13 01:57:46;;;;;;;20.52;11.02;;;;;;;;;;5036488;28;20037;-84
2021/12/13 02:00:31;;;;;;;19.85;10.20;;;;;;;;;;5039434;28;20483;-85
2021/12/13 02:02:59;;;;;;;20.05;10.20;;;;;;;;;;5038390;28;20489;-84
2021/12/13 02:06:09;;;;;;;23.05;11.32;;;;;;;;;;5022537;28;20044;-85
2021/12/13 02:08:39;;;;;;;18.60;9.60;;;;;;;;;;5039266;28;20032;-85
2021/12/13 02:11:16;;;;;;;22.90;11.32;;;;;;;;;;5038989;28;20036;-85
2021/12/13 02:17:57;;;;;;;18.60;9.65;;;;;;;;;;5027005;28;20021;-86
2021/12/13 02:20:49;;;;;;;21.40;10.30;;;;;;;;;;5032689;28;20029;-85
2021/12/13 02:23:33;;;;;;;16.98;9.73;;;;;;;;;;5030786;28;20038;-84
2021/12/13 02:26:02;;;;;;;20.27;10.75;;;;;;;;;;5020074;28;20116;-85
2021/12/13 02:28:39;;;;;;;19.25;10.10;;;;;;;;;;5043551;28;20029;-85
2021/12/13 02:31:33;;;;;;;19.45;10.15;;;;;;;;;;5045694;28;20025;-85
2021/12/13 02:34:09;;;;;;;19.75;10.93;;;;;;;;;;5042605;28;20033;-86
2021/12/13 02:36:47;;;;;;;19.38;9.70;;;;;;;;;;5043885;28;20029;-87
2021/12/13 02:39:23;;;;;;;18.98;9.32;;;;;;;;;;5043955;28;20032;-86
2021/12/13 02:41:55;;;;;;;16.75;9.68;;;;;;;;;;5025091;28;20116;-83
2021/12/13 02:44:30;;;;;;;17.63;9.77;;;;;;;;;;5035947;28;20120;-82
2021/12/13 02:47:04;;;;;;;19.27;10.02;;;;;;;;;;5019507;28;20052;-84
2021/12/13 02:49:37;;;;;;;21.00;10.90;;;;;;;;;;5035101;28;20033;-84
2021/12/13 02:52:10;;;;;;;19.38;10.27;;;;;;;;;;5049422;28;20097;-83
2021/12/13 02:54:42;;;;;;;19.27;10.18;;;;;;;;;;5055188;28;20093;-81
2021/12/13 02:57:28;;;;;;;18.95;10.52;;;;;;;;;;5053827;28;20037;-80
2021/12/13 03:00:18;;;;;;;23.20;9.93;;;;;;;;;;5036895;28;20033;-82
2021/12/13 03:03:07;;;;;;;;;;;;;;;;;;;;;
2021/12/13 03:05:42;;;;;;;17.63;9.55;;;;;;;;;;5035179;28;20406;-82
2021/12/13 03:08:13;;;;;;;;;;;;;;;;;;5034525;28;20093;-83
2021/12/13 03:10:48;;;;;;;18.38;9.38;;;;;;;;;;5017257;28;20397;-82
2021/12/13 03:13:19;;;;;;;20.70;9.98;;;;;;;;;;5017820;28;20036;-83
2021/12/13 03:16:27;;;;;;;18.65;9.95;;;;;;;;;;5035170;28;20517;-83
2021/12/13 03:19:11;;;;;;;19.85;10.13;;;;;;;;;;5033957;28;20033;-83
2021/12/13 03:22:15;;;;;;;20.58;10.32;;;;;;;;;;5018756;28;20079;-86
2021/12/13 03:25:24;;;;;;;19.35;9.98;;;;;;;;;;5037598;28;20455;-85
2021/12/13 03:28:23;;;;;;;20.80;10.13;;;;;;;;;;4937791;28;20039;-84
2021/12/13 03:31:25;;;;;;;;;;;;;;;;;;;;;
2021/12/13 03:34:02;;;;;;;18.77;9.38;;;;;;;;;;5036143;28;20116;-87
2021/12/13 03:37:30;;;;;;;21.33;9.15;;;;;;;;;;5025467;28;20030;-84
2021/12/13 03:40:04;;;;;;;17.45;9.57;;;;;;;;;;5058403;28;20048;-82
2021/12/13 03:42:44;;;;;;;17.23;9.57;;;;;;;;;;5058794;28;20024;-82
2021/12/13 03:45:37;;;;;;;18.52;9.60;;;;;;;;;;5038007;28;20552;-85
2021/12/13 03:48:10;;;;;;;19.38;9.75;;;;;;;;;;5035928;28;20037;-85
2021/12/13 03:50:39;;;;;;;19.92;10.60;;;;;;;;;;5035540;28;20033;-84
2021/12/13 03:53:20;;;;;;;20.67;10.43;;;;;;;;;;5018735;28;20430;-84
2021/12/13 03:56:15;;;;;;;21.58;10.68;;;;;;;;;;5036888;28;20033;-85
2021/12/13 03:58:52;;;;;;;22.40;10.75;;;;;;;;;;5020952;28;20044;-84
2021/12/13 04:01:56;;;;;;;20.23;9.82;;;;;;;;;;5021352;28;20484;-84
2021/12/13 04:05:01;;;;;;;19.73;9.97;;;;;;;;;;5039218;28;20441;-84
2021/12/13 04:07:48;;;;;;;19.63;9.75;;;;;;;;;;5021185;28;20068;-83
2021/12/13 04:10:24;;;;;;;19.00;10.52;;;;;;;;;;5021307;28;20038;-85
2021/12/13 04:12:58;;;;;;;21.25;10.77;;;;;;;;;;5022586;28;20031;-84
2021/12/13 04:15:57;;;;;;;17.67;9.95;;;;;;;;;;5022680;28;20053;-83
2021/12/13 04:22:57;;;;;;;17.85;9.68;;;;;;;;;;5022698;28;20041;-84
2021/12/13 04:26:01;;;;;;;;;;;;;;;;;;;;;
2021/12/13 04:33:15;;;;;;;20.63;11.40;;;;;;;;;;4926788;29;20035;-84
2021/12/13 04:35:44;;;;;;;19.55;10.15;;;;;;;;;;4931096;28;20957;-84
2021/12/13 04:38:17;;;;;;;21.92;11.15;;;;;;;;;;5037497;28;20411;-84
2021/12/13 04:40:57;;;;;;;24.90;12.80;;;;;;;;;;5021138;28;20545;-84
2021/12/13 04:43:43;;;;;;;27.45;13.40;;;;;;;;;;5039549;28;20398;-84
2021/12/13 04:46:28;;;;;;;;;;;;;;;;;;;;;
2021/12/13 04:49:00;;;;;;;20.77;11.20;;;;;;;;;;5043025;28;20097;-85
2021/12/13 04:51:49;;;;;;;19.27;10.27;;;;;;;;;;5041107;28;20048;-83
2021/12/13 04:57:27;;;;;;;18.13;10.15;;;;;;;;;;5041708;28;20021;-84
2021/12/13 05:00:05;;;;;;;18.73;10.05;;;;;;;;;;5038290;28;20037;-85
2021/12/13 05:02:49;;;;;;;17.85;9.93;;;;;;;;;;5023058;28;20565;-84
2021/12/13 05:05:18;;;;;;;;;;;;;;;;;;5023721;28;20098;-85
2021/12/13 05:07:55;;;;;;;15.70;8.65;;;;;;;;;;5023420;28;19995;-86
2021/12/13 05:10:25;;;;;;;16.33;9.30;;;;;;;;;;5040015;28;20021;-86
2021/12/13 05:13:26;;;;;;;15.45;8.88;;;;;;;;;;5022738;28;20032;-86
2021/12/13 05:16:07;;;;;;;16.17;8.98;;;;;;;;;;5025882;28;20026;-85
2021/12/13 05:18:44;;;;;;;17.23;9.82;;;;;;;;;;5026664;28;20025;-86
2021/12/13 05:21:36;;;;;;;18.70;9.90;;;;;;;;;;5026325;28;20025;-85
2021/12/13 05:24:40;;;;;;;18.45;10.02;;;;;;;;;;5043193;28;20092;-86
2021/12/13 05:27:12;;;;;;;17.05;10.20;;;;;;;;;;5025442;28;20045;-86
2021/12/13 05:29:50;;;;;;;18.92;10.48;;;;;;;;;;5043201;28;20041;-86
2021/12/13 05:32:29;;;;;;;18.63;9.60;;;;;;;;;;5025029;28;20052;-85
2021/12/13 05:35:21;;;;;;;21.13;11.02;;;;;;;;;;5041570;28;20031;-85
2021/12/13 05:37:55;;;;;;;17.98;10.45;;;;;;;;;;5024053;28;20478;-86
2021/12/13 05:40:35;;;;;;;18.50;10.20;;;;;;;;;;5041628;28;20076;-85
2021/12/13 05:43:18;;;;;;;17.63;10.00;;;;;;;;;;5042405;28;20372;-85
2021/12/13 05:46:24;;;;;;;;;;;;;;;;;;;;;
2021/12/13 05:49:20;;;;;;;19.20;9.40;;;;;;;;;;5037806;28;20021;-84
2021/12/13 05:52:10;;;;;;;17.20;8.68;;;;;;;;;;5038912;28;20109;-84
2021/12/13 05:55:02;;;;;;;15.43;8.45;;;;;;;;;;5059406;28;20016;-81
2021/12/13 05:58:19;;;;;;;15.27;8.75;;;;;;;;;;5060080;28;20036;-80
2021/12/13 06:09:26;;;;;;;15.80;8.63;;;;;;;;;;5037303;28;20124;-82
2021/12/13 06:12:09;;;;;;;15.30;8.77;;;;;;;;;;5032269;28;20025;-84
2021/12/13 06:17:32;;;;;;;15.15;8.65;;;;;;;;;;5040159;28;20116;-83
2021/12/13 06:20:07;;;;;;;14.25;8.10;;;;;;;;;;5058824;28;20017;-83
2021/12/13 06:22:49;;;;;;;15.68;9.32;;;;;;;;;;5057479;28;20052;-83
2021/12/13 06:25:20;;;;;;;16.33;8.75;;;;;;;;;;5027458;28;20044;-85
2021/12/13 06:27:55;;;;;;;17.13;9.77;;;;;;;;;;5024863;28;20029;-85
2021/12/13 06:30:47;;;;;;;17.48;9.02;;;;;;;;;;5024073;28;20037;-85
2021/12/13 06:33:15;;;;;;;17.45;9.00;;;;;;;;;;5039921;28;20138;-85
2021/12/13 06:35:55;;;;;;;16.33;8.63;;;;;;;;;;5037214;28;20450;-83
2021/12/13 06:39:22;;;;;;;17.25;8.05;;;;;;;;;;5020296;28;20395;-85
2021/12/13 06:42:14;;;;;;;18.13;8.57;;;;;;;;;;5020057;28;20494;-84
2021/12/13 06:45:10;;;;;;;15.10;8.63;;;;;;;;;;5029413;28;20410;-85
2021/12/13 06:48:09;;;;;;;;;;;;;;;;;;;;;
2021/12/13 06:50:46;;;;;;;18.02;8.32;;;;;;;;;;5036343;28;20101;-85
2021/12/13 06:53:18;;;;;;;18.77;9.18;;;;;;;;;;5018638;28;20079;-85
2021/12/13 06:56:31;;;;;;;21.27;10.00;;;;;;;;;;5017426;28;20048;-85
2021/12/13 06:59:16;;;;;;;18.70;9.77;;;;;;;;;;5007489;28;20037;-84
2021/12/13 07:02:10;;;;;;;18.90;10.05;;;;;;;;;;5018890;28;20093;-84
2021/12/13 07:05:10;;;;;;;23.13;9.85;;;;;;;;;;5017473;28;20030;-85
2021/12/13 07:08:02;;;;;;;16.67;9.32;;;;;;;;;;5030309;28;20060;-84
2021/12/13 07:11:08;;;;;;;15.20;8.82;;;;;;;;;;5037582;28;20109;-84
2021/12/13 07:14:01;;;;;;;19.17;8.98;;;;;;;;;;4957299;28;20033;-83
2021/12/13 07:17:01;;;;;;;17.95;9.68;;;;;;;;;;5037697;28;20035;-84
2021/12/13 07:19:51;;;;;;;17.08;9.38;;;;;;;;;;5039089;28;20041;-83
2021/12/13 07:22:37;;;;;;;;;;;;;;;;;;;;;
2021/12/13 07:25:46;;;;;;;16.08;8.63;;;;;;;;;;5035898;28;20124;-85
2021/12/13 07:28:35;;;;;;;17.00;9.18;;;;;;;;;;5005580;28;20037;-85
2021/12/13 07:31:32;;;;;;;19.20;9.13;;;;;;;;;;5040582;28;20132;-84
2021/12/13 07:34:35;;;;;;;17.42;9.02;;;;;;;;;;5041027;28;20536;-83
2021/12/13 07:37:10;;;;;;;16.58;9.05;;;;;;;;;;5024544;28;20041;-83
2021/12/13 07:39:46;;;;;;;18.38;9.13;;;;;;;;;;5041179;28;20033;-84
2021/12/13 07:42:52;;;;;;;;;;;;;;;;;;;;;
2021/12/13 07:46:28;;;;;;;18.17;9.38;;;;;;;;;;5039801;28;20100;-84
2021/12/13 07:49:31;;;;;;;20.15;9.65;;;;;;;;;;4957161;28;20037;-84
2021/12/13 07:52:51;;;;;;;;;;;;;;;;;;;;;
2021/12/13 07:59:11;;;;;;;;;;;;;;;;;;;;;
2021/12/13 08:02:05;;;;;;;21.58;11.45;;;;;;;;;;5042570;28;20545;-83
2021/12/13 08:05:13;;;;;;;27.17;13.23;;;;;;;;;;5023390;28;20037;-84
2021/12/13 08:08:39;;;;;;;27.83;14.50;;;;;;;;;;5041309;28;20255;-84
2021/12/13 08:12:12;;;;;;;17.55;8.95;;;;;;;;;;5040354;28;20036;-83
2021/12/13 08:18:42;;;;;;;17.02;8.60;;;;;;;;;;5021315;28;20044;-83
2021/12/13 08:21:57;;;;;;;18.55;9.30;;;;;;;;;;5021182;28;20042;-82
2021/12/13 08:28:17;;;;;;;16.25;9.32;;;;;;;;;;5061918;28;20039;-83
2021/12/13 08:31:19;;;;;;;;;;;;;;;;;;;;;
2021/12/13 08:37:04;;;;;;;18.77;9.10;;;;;;;;;;5061902;28;20041;-83
2021/12/13 08:40:02;;;;;;;;;;;;;;;;;;;;;
2021/12/13 08:50:14;;;;;;;19.90;10.40;;;;;;;;;;4940816;29;20164;-83
2021/12/13 08:56:05;;;;;;;16.52;9.23;;;;;;;;;;5025280;28;20069;-83
2021/12/13 08:59:34;;;;;;;16.80;8.88;;;;;;;;;;5036958;28;20029;-82
2021/12/13 09:05:54;;;;;;;;;;;;;;;;;;;;;
2021/12/13 09:09:36;;;;;;;14.45;7.80;;;;;;;;;;5041653;28;20116;-83
2021/12/13 09:12:50;;;;;;;14.73;8.35;;;;;;;;;;4963857;28;20031;-83
2021/12/13 09:19:05;;;;;;;17.90;9.05;;;;;;;;;;5042579;28;20029;-83
2021/12/13 09:21:56;;;;;;;15.80;8.25;;;;;;;;;;5025846;28;20048;-81
2021/12/13 09:25:10;;;;;;;15.98;8.48;;;;;;;;;;5016010;28;20033;-83
2021/12/13 09:27:45;;;;;;;;;;;;;;;;;;;;;
2021/12/13 09:34:47;;;;;;;16.17;8.73;;;;;;;;;;5040877;28;20079;-83
2021/12/13 09:38:05;;;;;;;15.75;8.02;;;;;;;;;;5023002;28;20120;-84
2021/12/13 09:41:13;;;;;;;18.00;8.98;;;;;;;;;;5040050;28;20032;-84
2021/12/13 09:44:20;;;;;;;16.05;9.10;;;;;;;;;;5032203;28;20047;-84
2021/12/13 11:28:34;;;;;;;;;;;;;;;;;;;;;
2021/12/13 11:35:09;;;;;;;;;;;;;;;;;;;;;
2021/12/13 11:38:26;;;;;;;;;;;;;;;;;;;;;
2021/12/13 11:41:29;;;;;;;25.38;12.38;;;;;;;;;;4876007;29;20215;-85
2021/12/13 11:47:51;;;;;;;21.90;12.13;;;;;;;;;;4846659;29;20548;-85
2021/12/13 11:51:05;;;;;;;21.55;13.10;;;;;;;;;;4921786;29;20039;-85
2021/12/13 11:54:08;;;;;;;29.77;13.18;;;;;;;;;;4958962;29;20046;-85
2021/12/13 12:00:43;;;;;;;23.95;11.18;;;;;;;;;;4979289;28;20065;-84
2021/12/13 12:03:46;;;;;;;22.20;11.27;;;;;;;;;;4972570;28;20102;-85
2021/12/13 12:10:29;;;;;;;25.67;11.40;;;;;;;;;;4987310;28;20057;-83
2021/12/13 12:13:39;;;;;;;;;;;;;;;;;;;;;
2021/12/13 12:19:42;;;;;;;;;;;;;;;;;;;;;
2021/12/13 12:22:40;;;;;;;26.60;14.55;;;;;;;;;;4999179;28;20102;-84
2021/12/13 12:25:39;;;;;;;19.90;11.10;;;;;;;;;;4980239;28;20045;-84
2021/12/13 12:32:25;;;;;;;19.25;10.80;;;;;;;;;;4941513;29;20042;-83
2021/12/13 12:38:59;;;;;;;22.42;10.77;;;;;;;;;;4983402;28;20053;-83
2021/12/13 12:42:14;;;;;;;;;;;;;;;;;;;;;
2021/12/13 12:45:02;;;;;;;22.65;11.77;;;;;;;;;;4992574;28;20058;-85
2021/12/13 12:48:32;;;;;;;24.88;12.13;;;;;;;;;;4979154;28;20023;-85
2021/12/13 12:51:37;;;;;;;21.15;10.75;;;;;;;;;;4987967;28;20105;-85
2021/12/13 12:54:43;;;;;;;19.73;10.75;;;;;;;;;;4964437;28;20070;-85
2021/12/13 12:57:45;;;;;;;20.33;10.85;;;;;;;;;;4967859;28;20049;-84
2021/12/13 13:01:21;;;;;;;25.60;13.35;;;;;;;;;;4964742;28;20049;-84
2021/12/13 13:17:32;;;;;;;21.27;10.48;;;;;;;;;;4990527;28;20037;-84
2021/12/13 13:27:57;;;;;;;;;;;;;;;;;;;;;
2021/12/13 13:31:21;;;;;;;;;;;;;;;;;;;;;
2021/12/13 13:34:26;;;;;;;24.92;11.90;;;;;;;;;;5049537;22;20136;-83
2021/12/13 13:37:35;;;;;;;22.60;11.73;;;;;;;;;;5020470;28;20045;-85
2021/12/13 13:40:55;;;;;;;;;;;;;;;;;;;;;
2021/12/13 13:43:48;;;;;;;22.35;11.13;;;;;;;;;;4998022;28;20102;-84
2021/12/13 13:46:41;;;;;;;23.27;12.10;;;;;;;;;;5003229;28;20057;-83
2021/12/13 13:49:23;;;;;;;19.02;10.45;;;;;;;;;;5022693;28;20032;-83
2021/12/13 13:52:21;;;;;;;23.40;11.90;;;;;;;;;;5002139;28;20471;-83
2021/12/13 13:55:33;;;;;;;25.15;11.70;;;;;;;;;;5003659;28;20129;-85
2021/12/13 14:04:36;;;;;;;;;;;;;;;;;;;;;
2021/12/13 14:08:00;;;;;;;21.60;11.55;;;;;;;;;;4985279;28;20456;-85
2021/12/13 14:10:55;;;;;;;25.17;12.23;;;;;;;;;;4979158;28;20030;-83
2021/12/13 14:23:45;;;;;;;22.45;11.07;;;;;;;;;;4922481;29;20032;-83
2021/12/13 14:29:56;;;;;;;22.60;11.07;;;;;;;;;;4923065;29;20032;-83
2021/12/13 14:32:45;;;;;;;27.52;13.05;;;;;;;;;;5000831;28;20023;-82
2021/12/13 14:36:14;;;;;;;24.90;12.23;;;;;;;;;;5003245;28;20022;-83
2021/12/13 14:39:35;;;;;;;24.88;11.73;;;;;;;;;;5019194;28;20091;-83
2021/12/13 14:50:16;;;;;;;28.65;13.27;;;;;;;;;;4937865;29;20059;-83
2021/12/13 14:56:26;;;;;;;26.45;13.30;;;;;;;;;;4995251;28;20592;-83
2021/12/13 14:59:42;;;;;;;29.73;14.23;;;;;;;;;;4944665;28;20034;-86
2021/12/13 15:02:39;;;;;;;;;;;;;;;;;;;;;
2021/12/13 15:05:40;;;;;;;30.45;14.73;;;;;;;;;;4999683;28;20097;-83
2021/12/13 15:08:21;;;;;;;28.25;14.07;;;;;;;;;;4979438;28;20034;-83
2021/12/13 15:14:27;;;;;;;31.92;14.07;;;;;;;;;;4993628;28;20030;-82
2021/12/13 15:17:55;;;;;;;;;;;;;;;;;;;;;
2021/12/13 15:20:31;;;;;;;26.75;13.07;;;;;;;;;;4980426;28;20034;-83
2021/12/13 15:23:22;;;;;;;23.42;11.77;;;;;;;;;;4980528;28;20037;-85
2021/12/13 15:26:39;;;;;;;28.27;13.38;;;;;;;;;;4986730;28;20030;-84
2021/12/13 15:30:04;;;;;;;27.10;13.65;;;;;;;;;;4980455;28;20044;-83
2021/12/13 15:33:02;;;;;;;;;;;;;;;;;;;;;
2021/12/13 15:39:39;;;;;;;;;;;;;;;;;;;;;
2021/12/13 15:43:06;;;;;;;25.60;13.82;;;;;;;;;;4958196;29;20099;-84
2021/12/13 15:46:06;;;;;;;24.50;12.85;;;;;;;;;;4941542;29;20564;-84
2021/12/13 15:52:24;;;;;;;;;;;;;;;;;;;;;
2021/12/13 16:03:03;;;;;;;;;;;;;;;;;;;;;
2021/12/13 16:06:02;;;;;;;;;;;;;;;;;;4997464;28;20132;-83
2021/12/13 16:08:52;;;;;;;29.10;13.95;;;;;;;;;;5010720;28;20317;-83
2021/12/13 16:12:17;;;;;;;32.80;14.73;;;;;;;;;;4998774;28;20064;-83
2021/12/13 16:15:41;;;;;;;27.75;14.90;;;;;;;;;;4993305;28;20044;-85
2021/12/13 16:19:11;;;;;;;26.67;14.40;;;;;;;;;;4977340;28;20033;-84
2021/12/13 16:22:34;;;;;;;38.33;21.40;;;;;;;;;;4935724;29;20601;-83
2021/12/13 16:26:11;;;;;;;36.38;20.17;;;;;;;;;;4911301;29;20035;-82
2021/12/13 16:28:43;;;;;;;31.80;18.65;;;;;;;;;;4861446;29;20041;-86
2021/12/13 16:31:38;;;;;;;33.13;17.88;;;;;;;;;;4847440;29;20029;-85
2021/12/13 16:34:20;;;;;;;35.85;20.13;;;;;;;;;;5010900;28;20026;-84
2021/12/13 16:37:08;;;;;;;41.17;20.80;;;;;;;;;;5000692;28;20038;-85
2021/12/13 16:39:56;;;;;;;46.70;24.35;;;;;;;;;;5005803;28;20074;-85
2021/12/13 16:42:27;;;;;;;49.40;26.30;;;;;;;;;;5005249;28;20364;-83
2021/12/13 16:44:55;;;;;;;39.08;20.85;;;;;;;;;;5003349;28;20026;-85
2021/12/13 16:47:43;;;;;;;43.22;22.80;;;;;;;;;;5020690;28;20046;-84
2021/12/13 16:50:18;;;;;;;65.80;30.42;;;;;;;;;;5018804;28;20037;-83
2021/12/13 16:52:54;;;;;;;67.18;31.20;;;;;;;;;;5001152;28;20082;-84
2021/12/13 16:55:27;;;;;;;55.05;26.20;;;;;;;;;;5001414;28;20033;-84
2021/12/13 16:58:06;;;;;;;54.00;25.37;;;;;;;;;;5000477;28;20026;-83
2021/12/13 17:00:57;;;;;;;48.35;23.60;;;;;;;;;;5001273;28;20026;-83
2021/12/13 17:03:32;;;;;;;43.08;21.38;;;;;;;;;;5024734;28;20079;-82
2021/12/13 17:06:55;;;;;;;;;;;;;;;;;;;;;
2021/12/13 17:10:03;;;;;;;39.70;19.50;;;;;;;;;;5041588;28;20030;-83
2021/12/13 17:16:31;;;;;;;;;;;;;;;;;;;;;
2021/12/13 17:34:33;;;;;;;;;;;;;;;;;;;;;
2021/12/13 17:48:35;;;;;;;;;;;;;;;;;;;;;
2021/12/13 18:09:13;;;;;;;;;;;;;;;;;;;;;
2021/12/13 18:12:35;;;;;;;;;;;;;;;;;;;;;
2021/12/13 18:16:03;;;;;;;34.75;17.75;;;;;;;;;;4980413;28;20121;-86
2021/12/13 20:42:57;;;;;;;34.30;18.27;;;;;;;;;;3204026;22;20069;-86
2021/12/13 20:45:57;;;;;;;30.50;18.30;;;;;;;;;;4986696;28;20069;-85
2021/12/13 20:48:38;;;;;;;31.40;17.50;;;;;;;;;;5001266;28;20576;-85
2021/12/13 20:51:36;;;;;;;31.55;18.13;;;;;;;;;;5000879;28;20033;-86
2021/12/13 20:54:18;;;;;;;30.88;17.65;;;;;;;;;;5001679;28;20034;-85
2021/12/13 20:57:30;;;;;;;;;;;;;;;;;;;;;
2021/12/13 21:00:24;;;;;;;;;;;;;;;;;;;;;
2021/12/13 21:07:07;;;;;;;33.67;17.80;;;;;;;;;;4918546;29;20164;-85
2021/12/13 21:09:41;;;;;;;34.25;17.90;;;;;;;;;;5002004;28;20034;-85
2021/12/13 21:16:24;;;;;;;;;;;;;;;;;;;;;
2021/12/13 21:19:13;;;;;;;;;;;;;;;;;;;;;
2021/12/13 21:22:12;;;;;;;;;;;;;;;;;;;;;
2021/12/13 21:25:26;;;;;;;;;;;;;;;;;;;;;
2021/12/13 21:28:12;;;;;;;31.33;18.00;;;;;;;;;;5034208;28;20108;-84
2021/12/13 21:35:12;;;;;;;;;;;;;;;;;;;;;
2021/12/13 21:44:54;;;;;;;31.35;18.52;;;;;;;;;;5032633;28;20506;-86
2021/12/13 21:48:17;;;;;;;33.42;19.02;;;;;;;;;;5021226;28;20022;-86
2021/12/13 21:52:00;;;;;;;;;;;;;;;;;;;;;
2021/12/13 21:55:27;;;;;;;;;;;;;;;;;;;;;
2021/12/13 22:01:35;;;;;;;;;;;;;;;;;;;;;
2021/12/13 22:08:35;;;;;;;;;;;;;;;;;;;;;
2021/12/13 22:18:50;;;;;;;;;;;;;;;;;;;;;
2021/12/13 23:09:51;;;;;;;27.98;16.50;;;;;;;;;;4992727;28;20027;-85
2021/12/13 23:19:32;;;;;;;;;;;;;;;;;;4945166;29;20043;-85
2021/12/13 23:22:45;;;;;;;27.45;15.77;;;;;;;;;;4954242;28;19909;-84
2021/12/13 23:25:32;;;;;;;31.15;17.30;;;;;;;;;;4950165;28;20038;-85
2021/12/13 23:32:30;;;;;;;;;;;;;;;;;;;;;
2021/12/13 23:48:49;;;;;;;27.48;15.40;;;;;;;;;;5001673;28;20471;-86
2021/12/13 23:52:15;;;;;;;;;;;;;;;;;;;;;
2021/12/13 23:55:36;;;;;;;;;;;;;;;;;;;;;
2021/12/13 23:58:44;;;;;;;;;;;;;;;;;;;;;
